Time;durP1;ratioP1;P1;durP2;ratioP2;P2;SDS_P1;SDS_P2;PMS_P1;PMS_P2;Temp;Humidity;BMP_temperature;BMP_pressure;BME280_temperature;BME280_humidity;BME280_pressure;Samples;Min_cycle;Max_cycle;Signal;HPM_P1;HPM_P2
2022/03/07 00:01:27;;;;;;;1.37;0.60;;;1.90;74.70;;;;;;5045916;28;20040;-78
2022/03/07 00:03:57;;;;;;;1.40;0.90;;;1.90;74.70;;;;;;5053398;28;20170;-78
2022/03/07 00:06:24;;;;;;;1.57;0.70;;;1.80;74.70;;;;;;5040618;28;20075;-78
2022/03/07 00:08:52;;;;;;;2.00;0.70;;;1.80;74.80;;;;;;5040727;28;20436;-78
2022/03/07 00:11:20;;;;;;;1.77;0.70;;;1.80;74.80;;;;;;5056564;28;20045;-78
2022/03/07 00:13:48;;;;;;;1.30;0.50;;;1.80;74.90;;;;;;5027816;28;20063;-78
2022/03/07 00:16:15;;;;;;;1.13;0.60;;;1.80;75.00;;;;;;5056369;28;20087;-78
2022/03/07 00:18:42;;;;;;;1.30;0.70;;;1.70;75.70;;;;;;5056195;28;20101;-77
2022/03/07 00:21:10;;;;;;;2.00;0.60;;;1.70;75.20;;;;;;5040026;28;20093;-78
2022/03/07 00:23:37;;;;;;;1.43;0.50;;;1.60;75.40;;;;;;5039974;28;20052;-78
2022/03/07 00:26:07;;;;;;;0.93;0.40;;;1.60;75.50;;;;;;5039956;28;20472;-78
2022/03/07 00:28:35;;;;;;;2.50;0.70;;;1.50;75.70;;;;;;5039808;28;20044;-78
2022/03/07 00:31:05;;;;;;;0.77;0.50;;;1.50;75.80;;;;;;5056680;28;20555;-80
2022/03/07 00:33:34;;;;;;;1.20;0.50;;;1.40;75.90;;;;;;5056097;28;20056;-80
2022/03/07 00:36:01;;;;;;;1.30;0.60;;;1.40;76.10;;;;;;5039519;28;20123;-78
2022/03/07 00:38:28;;;;;;;1.47;0.50;;;1.30;76.80;;;;;;5056688;28;20098;-78
2022/03/07 00:40:55;;;;;;;1.30;0.63;;;1.30;76.20;;;;;;5056051;28;20048;-78
2022/03/07 00:43:23;;;;;;;1.97;0.70;;;1.30;76.20;;;;;;5055962;28;20086;-78
2022/03/07 00:45:50;;;;;;;1.47;0.50;;;1.30;76.20;;;;;;5054337;28;20148;-80
2022/03/07 00:48:18;;;;;;;1.17;0.50;;;1.30;76.10;;;;;;5039733;28;20040;-80
2022/03/07 00:50:48;;;;;;;2.20;0.63;;;1.30;76.20;;;;;;5055861;28;20072;-80
2022/03/07 00:53:24;;;;;;;1.40;0.50;;;1.30;76.20;;;;;;5039287;28;20117;-80
2022/03/07 00:55:52;;;;;;;1.30;0.60;;;1.30;76.20;;;;;;5039172;28;20049;-80
2022/03/07 00:58:20;;;;;;;0.97;0.50;;;1.30;76.20;;;;;;5022308;28;20053;-79
2022/03/07 01:00:48;;;;;;;1.60;0.80;;;1.30;76.20;;;;;;5006788;28;20046;-78
2022/03/07 01:03:17;;;;;;;1.17;0.50;;;1.30;76.20;;;;;;5022981;28;20139;-78
2022/03/07 01:05:46;;;;;;;1.77;0.60;;;1.30;76.20;;;;;;5038822;28;20071;-77
2022/03/07 01:08:15;;;;;;;2.33;0.60;;;1.30;76.30;;;;;;5055479;28;20346;-79
2022/03/07 01:10:42;;;;;;;1.30;0.50;;;1.30;76.30;;;;;;5038936;28;20044;-80
2022/03/07 01:13:09;;;;;;;0.93;0.47;;;1.30;76.30;;;;;;5055267;28;20047;-80
2022/03/07 01:15:37;;;;;;;1.33;0.60;;;1.30;76.40;;;;;;5022386;28;20040;-79
2022/03/07 01:18:04;;;;;;;2.37;0.57;;;1.30;76.40;;;;;;5037348;28;20532;-79
2022/03/07 01:20:32;;;;;;;1.47;0.73;;;1.30;76.50;;;;;;5018536;28;20045;-80
2022/03/07 01:23:00;;;;;;;2.03;0.60;;;1.30;76.50;;;;;;5035171;28;20066;-79
2022/03/07 01:25:27;;;;;;;1.63;0.80;;;1.30;76.40;;;;;;5019226;28;20049;-80
2022/03/07 01:27:55;;;;;;;1.00;0.43;;;1.30;76.40;;;;;;5034321;28;20111;-79
2022/03/07 01:30:22;;;;;;;1.73;0.70;;;1.30;76.50;;;;;;5035157;28;20497;-80
2022/03/07 01:32:52;;;;;;;1.30;0.50;;;1.30;76.60;;;;;;5019447;28;20127;-80
2022/03/07 01:35:24;;;;;;;1.70;0.60;;;1.20;76.60;;;;;;5019383;28;20512;-80
2022/03/07 01:37:51;;;;;;;1.90;0.60;;;1.20;76.70;;;;;;5018898;28;20501;-79
2022/03/07 01:40:19;;;;;;;0.90;0.40;;;1.20;76.70;;;;;;5035276;28;20397;-80
2022/03/07 01:42:46;;;;;;;2.00;0.63;;;1.30;76.70;;;;;;5018839;28;20071;-80
2022/03/07 01:45:18;;;;;;;1.33;0.57;;;1.30;76.70;;;;;;5032509;28;20389;-80
2022/03/07 01:47:46;;;;;;;2.60;0.90;;;1.30;76.70;;;;;;5041444;28;20322;-79
2022/03/07 01:50:17;;;;;;;2.10;0.80;;;1.20;76.60;;;;;;5056952;28;20062;-79
2022/03/07 01:52:47;;;;;;;2.33;0.90;;;1.20;76.80;;;;;;5057558;28;20044;-80
2022/03/07 01:55:17;;;;;;;1.83;0.70;;;1.10;76.90;;;;;;5057567;28;20043;-81
2022/03/07 01:57:50;;;;;;;1.23;0.53;;;1.10;77.10;;;;;;5058277;28;20381;-80
2022/03/07 02:00:24;;;;;;;1.20;0.63;;;1.00;77.20;;;;;;5073851;28;20040;-80
2022/03/07 02:02:53;;;;;;;1.73;0.70;;;1.00;77.30;;;;;;5057413;28;20063;-80
2022/03/07 02:05:29;;;;;;;1.73;0.60;;;1.00;77.30;;;;;;5046134;28;20404;-80
2022/03/07 02:08:22;;;;;;;1.50;0.70;;;1.00;77.30;;;;;;5039339;28;20056;-80
2022/03/07 02:11:04;;;;;;;1.50;0.63;;;1.00;77.20;;;;;;5039674;28;20527;-79
2022/03/07 02:13:35;;;;;;;1.77;0.73;;;1.00;77.20;;;;;;5038133;28;20075;-79
2022/03/07 02:16:05;;;;;;;1.67;0.80;;;1.10;77.10;;;;;;5037910;28;20044;-80
2022/03/07 02:18:37;;;;;;;2.00;0.70;;;1.10;77.10;;;;;;5038144;28;20044;-80
2022/03/07 02:21:10;;;;;;;;;;;1.00;77.10;;;;;;5038529;28;20041;-80
2022/03/07 02:23:49;;;;;;;2.60;0.77;;;1.00;77.20;;;;;;5055850;28;19974;-80
2022/03/07 02:26:20;;;;;;;2.10;0.70;;;1.00;77.20;;;;;;5037429;28;20045;-80
2022/03/07 02:28:51;;;;;;;2.33;0.83;;;1.00;77.20;;;;;;5053462;28;20057;-80
2022/03/07 02:31:22;;;;;;;2.17;0.80;;;1.00;77.30;;;;;;5037689;28;20052;-80
2022/03/07 02:33:51;;;;;;;2.23;0.90;;;1.00;77.40;;;;;;5053402;28;20048;-80
2022/03/07 02:36:21;;;;;;;2.30;0.70;;;1.00;77.40;;;;;;5043506;28;20045;-80
2022/03/07 02:38:49;;;;;;;2.40;1.20;;;1.00;77.50;;;;;;5037185;28;20136;-80
2022/03/07 02:41:17;;;;;;;2.67;0.97;;;1.00;77.50;;;;;;5036973;28;20123;-80
2022/03/07 02:43:49;;;;;;;1.92;0.73;;;1.00;77.60;;;;;;5013814;28;1098448;-80
2022/03/07 02:46:16;;;;;;;1.97;0.77;;;0.90;77.60;;;;;;5005179;28;20132;-80
2022/03/07 02:48:47;;;;;;;2.47;1.00;;;0.90;77.70;;;;;;5022038;28;20497;-80
2022/03/07 02:51:14;;;;;;;2.37;0.80;;;0.90;77.80;;;;;;5021556;28;20045;-80
2022/03/07 02:53:44;;;;;;;2.17;0.93;;;0.90;77.70;;;;;;5022827;28;20060;-80
2022/03/07 02:56:11;;;;;;;2.57;1.03;;;0.90;77.70;;;;;;5037726;28;20052;-80
2022/03/07 02:58:38;;;;;;;2.33;1.10;;;0.90;77.70;;;;;;5037432;28;20389;-80
2022/03/07 03:01:05;;;;;;;2.20;0.80;;;0.90;77.70;;;;;;5021119;28;20040;-80
2022/03/07 03:03:33;;;;;;;2.40;1.00;;;1.00;77.80;;;;;;5054090;28;20041;-80
2022/03/07 03:06:00;;;;;;;2.80;1.00;;;1.00;77.80;;;;;;5037509;28;20036;-80
2022/03/07 03:08:28;;;;;;;1.93;0.87;;;0.90;77.70;;;;;;5037607;28;20048;-80
2022/03/07 03:10:58;;;;;;;1.93;0.80;;;0.90;77.80;;;;;;5005210;28;20097;-80
2022/03/07 03:13:25;;;;;;;2.93;0.80;;;0.90;77.90;;;;;;5054414;28;20048;-80
2022/03/07 03:15:54;;;;;;;2.10;0.83;;;0.90;78.10;;;;;;5033675;28;20041;-80
2022/03/07 03:18:21;;;;;;;2.57;0.83;;;0.80;78.20;;;;;;5017816;28;20045;-80
2022/03/07 03:20:52;;;;;;;2.30;1.13;;;0.80;78.30;;;;;;5036013;28;20055;-80
2022/03/07 03:23:22;;;;;;;2.83;0.90;;;0.70;78.30;;;;;;5037790;28;20061;-80
2022/03/07 03:25:50;;;;;;;2.30;0.93;;;0.70;78.40;;;;;;5037442;28;20057;-80
2022/03/07 03:28:17;;;;;;;2.00;1.00;;;0.70;78.50;;;;;;5037723;28;20045;-80
2022/03/07 03:30:44;;;;;;;2.03;0.70;;;0.60;78.60;;;;;;5020914;28;20501;-80
2022/03/07 03:33:11;;;;;;;2.40;1.00;;;0.60;78.60;;;;;;5020899;28;20136;-80
2022/03/07 03:35:38;;;;;;;2.70;0.80;;;0.60;78.80;;;;;;5020786;28;20048;-80
2022/03/07 03:38:08;;;;;;;2.40;0.83;;;0.50;78.80;;;;;;5037205;28;20041;-80
2022/03/07 03:40:39;;;;;;;2.40;0.80;;;0.60;78.90;;;;;;5037172;28;20496;-80
2022/03/07 03:43:07;;;;;;;3.17;0.90;;;0.60;78.80;;;;;;5020654;28;20417;-80
2022/03/07 03:45:34;;;;;;;3.33;1.10;;;0.50;78.80;;;;;;5053067;28;20440;-80
2022/03/07 03:48:01;;;;;;;2.97;1.17;;;0.50;78.90;;;;;;5057001;28;20056;-78
2022/03/07 03:50:28;;;;;;;1.97;1.00;;;0.60;78.90;;;;;;5057333;28;20160;-78
2022/03/07 03:52:55;;;;;;;1.87;0.73;;;0.50;78.80;;;;;;5039486;28;20500;-77
2022/03/07 03:55:22;;;;;;;3.03;1.03;;;0.50;78.90;;;;;;5023570;28;20508;-77
2022/03/07 03:57:49;;;;;;;2.97;1.00;;;0.50;79.00;;;;;;5073513;28;20037;-77
2022/03/07 04:00:19;;;;;;;2.37;0.90;;;0.50;78.90;;;;;;5057624;28;20064;-77
2022/03/07 04:02:46;;;;;;;2.70;1.17;;;0.60;79.00;;;;;;5056776;28;20056;-77
2022/03/07 04:05:15;;;;;;;3.17;1.40;;;0.50;78.90;;;;;;5056705;28;20569;-77
2022/03/07 04:07:43;;;;;;;3.20;1.07;;;0.50;79.00;;;;;;5073634;28;20132;-78
2022/03/07 04:10:13;;;;;;;2.70;0.87;;;0.50;79.00;;;;;;5056557;28;20075;-78
2022/03/07 04:12:42;;;;;;;2.77;0.87;;;0.50;79.20;;;;;;5056582;28;20049;-77
2022/03/07 04:15:10;;;;;;;3.17;1.20;;;0.40;79.20;;;;;;5056422;28;20124;-78
2022/03/07 04:17:39;;;;;;;3.10;1.13;;;0.40;79.40;;;;;;5056727;28;20045;-78
2022/03/07 04:20:07;;;;;;;2.57;1.13;;;0.40;79.50;;;;;;5056304;28;20484;-78
2022/03/07 04:22:36;;;;;;;3.43;1.30;;;0.30;79.60;;;;;;5056605;28;20036;-77
2022/03/07 04:25:05;;;;;;;3.00;1.30;;;0.30;79.70;;;;;;5056467;28;20056;-77
2022/03/07 04:27:32;;;;;;;2.30;0.93;;;0.20;79.80;;;;;;5056384;28;20040;-78
2022/03/07 04:30:03;;;;;;;3.63;0.83;;;0.20;79.80;;;;;;5056559;28;20094;-78
2022/03/07 04:32:30;;;;;;;2.27;0.90;;;0.20;79.90;;;;;;5055458;28;20060;-78
2022/03/07 04:35:03;;;;;;;2.77;1.17;;;0.20;79.90;;;;;;5056681;28;20129;-79
2022/03/07 04:37:31;;;;;;;3.40;1.47;;;0.20;80.00;;;;;;5039570;28;20459;-80
2022/03/07 04:39:59;;;;;;;2.73;0.90;;;0.10;80.00;;;;;;5022545;28;20476;-80
2022/03/07 04:42:26;;;;;;;2.37;0.90;;;0.10;80.00;;;;;;5029657;28;20113;-80
2022/03/07 04:44:52;;;;;;;3.10;1.00;;;0.10;80.10;;;;;;5070711;28;20076;-80
2022/03/07 04:47:19;;;;;;;2.83;1.10;;;0.10;80.10;;;;;;5026456;28;20105;-79
2022/03/07 04:49:49;;;;;;;3.13;1.30;;;0.10;80.20;;;;;;5042764;28;20162;-80
2022/03/07 04:52:16;;;;;;;2.53;1.10;;;0.00;80.20;;;;;;5059693;28;20048;-80
2022/03/07 04:54:44;;;;;;;1.33;0.63;;;0.00;80.30;;;;;;5076249;28;20037;-80
2022/03/07 04:57:12;;;;;;;2.70;1.07;;;0.00;80.40;;;;;;5042915;28;20559;-80
2022/03/07 04:59:38;;;;;;;2.10;0.80;;;-0.10;80.40;;;;;;5059385;28;20048;-79
2022/03/07 05:02:05;;;;;;;2.63;1.03;;;-0.10;80.40;;;;;;5059404;28;20047;-79
2022/03/07 05:04:33;;;;;;;3.73;1.20;;;-0.10;80.50;;;;;;5042403;28;20040;-79
2022/03/07 05:07:00;;;;;;;2.40;1.03;;;-0.10;80.60;;;;;;5058748;28;20068;-79
2022/03/07 05:09:27;;;;;;;2.73;1.00;;;-0.20;80.60;;;;;;5042209;28;20109;-80
2022/03/07 05:11:54;;;;;;;3.10;1.20;;;-0.20;80.70;;;;;;5074965;28;20048;-79
2022/03/07 05:14:21;;;;;;;3.10;1.17;;;-0.20;80.70;;;;;;5075574;28;20037;-79
2022/03/07 05:16:51;;;;;;;2.27;1.10;;;-0.20;80.80;;;;;;5058985;28;20444;-77
2022/03/07 05:19:21;;;;;;;2.13;0.70;;;-0.20;80.80;;;;;;5059740;28;20372;-77
2022/03/07 05:21:48;;;;;;;3.63;1.03;;;-0.30;80.80;;;;;;5059383;28;20067;-77
2022/03/07 05:24:25;;;;;;;2.43;0.90;;;-0.30;80.80;;;;;;5093483;28;20039;-77
2022/03/07 05:26:53;;;;;;;2.27;1.00;;;-0.30;80.90;;;;;;5042417;28;20044;-77
2022/03/07 05:29:21;;;;;;;2.13;1.00;;;-0.30;80.90;;;;;;5059091;28;20044;-77
2022/03/07 05:31:48;;;;;;;2.27;0.90;;;-0.30;81.00;;;;;;5093428;28;20119;-77
2022/03/07 05:34:15;;;;;;;2.40;0.80;;;-0.40;81.10;;;;;;5075421;28;20036;-77
2022/03/07 05:36:42;;;;;;;2.23;1.00;;;-0.30;81.10;;;;;;5058687;28;20056;-77
2022/03/07 05:39:12;;;;;;;1.63;0.87;;;-0.30;81.10;;;;;;5077549;28;20036;-77
2022/03/07 05:41:40;;;;;;;2.63;0.93;;;-0.30;81.00;;;;;;5053872;28;20044;-78
2022/03/07 05:44:06;;;;;;;3.10;1.20;;;-0.20;81.00;;;;;;5044869;28;20051;-77
2022/03/07 05:46:34;;;;;;;2.50;1.10;;;-0.20;80.90;;;;;;5052282;28;20036;-77
2022/03/07 05:49:02;;;;;;;2.57;1.13;;;-0.20;81.50;;;;;;5040385;28;20040;-77
2022/03/07 05:51:31;;;;;;;1.90;0.90;;;-0.20;80.90;;;;;;5040062;28;20157;-77
2022/03/07 05:53:58;;;;;;;1.97;0.90;;;-0.10;81.00;;;;;;5038556;28;20102;-77
2022/03/07 05:56:25;;;;;;;2.80;1.07;;;-0.10;80.80;;;;;;5021942;28;20040;-78
2022/03/07 05:58:52;;;;;;;2.83;1.13;;;-0.10;80.80;;;;;;5038357;28;20051;-78
2022/03/07 06:01:19;;;;;;;2.37;1.00;;;-0.10;80.80;;;;;;5038589;28;20059;-80
2022/03/07 06:03:46;;;;;;;2.27;0.70;;;-0.10;80.90;;;;;;5038361;28;20044;-80
2022/03/07 06:06:13;;;;;;;2.53;0.90;;;-0.10;80.90;;;;;;5021833;28;20345;-80
2022/03/07 06:08:41;;;;;;;2.10;0.80;;;-0.10;80.90;;;;;;5038326;28;20067;-80
2022/03/07 06:11:08;;;;;;;3.00;1.40;;;-0.10;81.00;;;;;;5038386;28;20056;-80
2022/03/07 06:13:35;;;;;;;2.10;0.73;;;-0.10;81.10;;;;;;5038174;28;20380;-80
2022/03/07 06:16:02;;;;;;;2.27;0.80;;;-0.10;81.20;;;;;;5038077;28;20139;-77
2022/03/07 06:18:30;;;;;;;2.63;0.97;;;-0.10;81.20;;;;;;5038042;28;20109;-77
2022/03/07 06:20:57;;;;;;;2.50;1.10;;;-0.10;81.30;;;;;;5038635;28;20131;-76
2022/03/07 06:23:24;;;;;;;3.07;0.80;;;-0.10;81.20;;;;;;5054716;28;20037;-76
2022/03/07 06:25:51;;;;;;;2.60;0.90;;;-0.10;81.20;;;;;;5037244;28;20152;-80
2022/03/07 06:28:18;;;;;;;2.00;0.87;;;-0.10;81.20;;;;;;5053701;28;20053;-80
2022/03/07 06:30:48;;;;;;;2.87;1.43;;;-0.10;81.20;;;;;;5054654;28;20054;-79
2022/03/07 06:33:16;;;;;;;2.33;0.90;;;-0.10;81.30;;;;;;5038076;28;20060;-77
2022/03/07 06:35:46;;;;;;;2.47;0.83;;;-0.10;81.40;;;;;;5037702;28;20082;-77
2022/03/07 06:38:13;;;;;;;4.20;1.27;;;-0.10;81.40;;;;;;5054760;28;20546;-76
2022/03/07 06:40:41;;;;;;;3.13;1.30;;;-0.10;81.50;;;;;;5045835;28;20044;-76
2022/03/07 06:43:11;;;;;;;3.07;1.30;;;-0.10;81.50;;;;;;5038776;28;20033;-76
2022/03/07 06:45:39;;;;;;;2.83;1.03;;;-0.20;81.50;;;;;;5038937;28;20079;-76
2022/03/07 06:48:06;;;;;;;2.57;1.10;;;-0.10;81.60;;;;;;5033867;28;20044;-79
2022/03/07 06:50:34;;;;;;;1.80;0.80;;;-0.20;81.60;;;;;;5057279;28;20044;-77
2022/03/07 06:53:01;;;;;;;1.83;0.60;;;-0.10;81.70;;;;;;5006412;28;20047;-78
2022/03/07 06:55:28;;;;;;;2.33;1.17;;;-0.10;81.60;;;;;;5038969;28;20045;-78
2022/03/07 06:57:55;;;;;;;2.57;0.90;;;-0.10;81.60;;;;;;5041534;28;20037;-77
2022/03/07 07:00:22;;;;;;;2.23;0.90;;;-0.10;81.60;;;;;;5024958;28;20041;-78
2022/03/07 07:02:49;;;;;;;1.97;0.90;;;-0.10;81.60;;;;;;5057566;28;20064;-76
2022/03/07 07:05:16;;;;;;;2.47;1.03;;;-0.10;81.70;;;;;;5058129;28;20510;-79
2022/03/07 07:07:44;;;;;;;3.50;0.90;;;-0.10;81.60;;;;;;5042815;28;20041;-79
2022/03/07 07:10:15;;;;;;;2.03;1.00;;;0.00;81.70;;;;;;5033406;28;20070;-80
2022/03/07 07:12:47;;;;;;;2.20;1.00;;;0.00;81.70;;;;;;5042861;28;20044;-81
2022/03/07 07:15:15;;;;;;;2.53;1.07;;;0.00;81.70;;;;;;5075109;28;20048;-80
2022/03/07 07:17:45;;;;;;;3.33;1.17;;;0.10;81.60;;;;;;5040840;28;20539;-79
2022/03/07 07:20:13;;;;;;;2.33;1.00;;;0.10;81.60;;;;;;5041113;28;20045;-80
2022/03/07 07:22:40;;;;;;;3.03;1.20;;;0.20;81.50;;;;;;5040923;28;20040;-80
2022/03/07 07:25:09;;;;;;;2.53;0.93;;;0.30;81.50;;;;;;5040893;28;20095;-79
2022/03/07 07:27:39;;;;;;;2.10;0.87;;;0.30;81.40;;;;;;5041519;28;20099;-78
2022/03/07 07:30:09;;;;;;;2.13;0.97;;;0.50;81.40;;;;;;5057111;28;20044;-79
2022/03/07 07:32:38;;;;;;;2.50;1.10;;;0.50;81.20;;;;;;5041136;28;20075;-78
2022/03/07 07:35:10;;;;;;;2.10;0.80;;;0.70;81.10;;;;;;5057066;28;20044;-78
2022/03/07 07:37:38;;;;;;;2.20;0.90;;;0.80;80.90;;;;;;5057174;28;20044;-78
2022/03/07 07:40:07;;;;;;;2.37;1.00;;;0.90;80.80;;;;;;5057043;28;20076;-78
2022/03/07 07:42:35;;;;;;;2.00;0.70;;;1.00;80.70;;;;;;5041339;28;20044;-78
2022/03/07 07:45:07;;;;;;;2.47;1.17;;;1.10;80.60;;;;;;5040863;28;20048;-79
2022/03/07 07:47:34;;;;;;;1.83;0.90;;;1.10;80.50;;;;;;5040444;28;20408;-78
2022/03/07 07:50:02;;;;;;;1.53;0.60;;;1.20;80.40;;;;;;5023876;28;20056;-78
2022/03/07 07:52:29;;;;;;;1.53;0.80;;;1.30;80.40;;;;;;5024288;28;20043;-78
2022/03/07 07:54:56;;;;;;;3.17;1.20;;;1.30;80.30;;;;;;5024050;28;20045;-79
2022/03/07 07:57:24;;;;;;;2.70;0.80;;;1.40;80.30;;;;;;5040391;28;20044;-79
2022/03/07 07:59:51;;;;;;;2.30;0.90;;;1.50;80.20;;;;;;5007588;28;20044;-79
2022/03/07 08:02:38;;;;;;;2.33;0.87;;;1.60;80.10;;;;;;5032870;28;20066;-79
2022/03/07 08:05:05;;;;;;;1.70;0.77;;;1.60;80.00;;;;;;5040042;28;20037;-80
2022/03/07 08:07:34;;;;;;;2.53;1.07;;;1.70;79.80;;;;;;5057006;28;20826;-79
2022/03/07 08:10:01;;;;;;;2.43;1.27;;;1.80;79.80;;;;;;5007989;28;20040;-79
2022/03/07 08:12:28;;;;;;;2.70;1.13;;;1.90;80.30;;;;;;5023794;28;20044;-78
2022/03/07 08:14:55;;;;;;;3.00;1.20;;;1.90;79.50;;;;;;5023572;28;20041;-78
2022/03/07 08:17:23;;;;;;;3.30;1.27;;;2.00;79.40;;;;;;5020203;28;20121;-77
2022/03/07 08:19:50;;;;;;;2.60;1.00;;;2.10;79.30;;;;;;5059675;28;20127;-78
2022/03/07 08:22:17;;;;;;;2.77;1.40;;;2.10;79.20;;;;;;5056613;28;20095;-83
2022/03/07 08:24:44;;;;;;;2.87;1.50;;;2.20;79.10;;;;;;5040216;28;20132;-83
2022/03/07 08:27:11;;;;;;;3.70;1.70;;;2.30;79.00;;;;;;5056659;28;20511;-81
2022/03/07 08:29:39;;;;;;;3.20;1.53;;;2.30;78.90;;;;;;5040018;28;20553;-82
2022/03/07 08:32:07;;;;;;;3.23;1.90;;;2.40;78.80;;;;;;5039648;28;20449;-83
2022/03/07 08:34:35;;;;;;;3.33;1.70;;;2.50;78.70;;;;;;5055903;28;20045;-82
2022/03/07 08:37:02;;;;;;;2.97;1.50;;;2.50;79.20;;;;;;5024113;28;20037;-79
2022/03/07 08:39:29;;;;;;;3.90;1.77;;;2.60;78.50;;;;;;5035252;28;20051;-81
2022/03/07 08:41:56;;;;;;;2.90;1.43;;;2.70;78.50;;;;;;5041874;28;20040;-80
2022/03/07 08:44:23;;;;;;;2.90;1.50;;;2.70;78.40;;;;;;5047559;28;20059;-81
2022/03/07 08:46:51;;;;;;;3.57;1.80;;;2.70;78.30;;;;;;5043489;28;20053;-81
2022/03/07 08:49:18;;;;;;;2.43;1.10;;;2.80;78.20;;;;;;5042953;28;20062;-83
2022/03/07 08:51:46;;;;;;;3.00;1.63;;;2.80;78.10;;;;;;5034110;28;20071;-82
2022/03/07 08:54:17;;;;;;;3.33;1.53;;;2.90;78.00;;;;;;5052793;28;20052;-82
2022/03/07 08:56:44;;;;;;;2.70;1.30;;;3.00;77.80;;;;;;5073495;28;20102;-76
2022/03/07 08:59:12;;;;;;;2.90;1.60;;;3.00;77.70;;;;;;5055514;28;20515;-76
2022/03/07 09:01:39;;;;;;;4.57;2.10;;;3.10;77.60;;;;;;5038922;28;20041;-76
2022/03/07 09:04:06;;;;;;;3.37;1.57;;;3.10;77.50;;;;;;5029774;28;20139;-79
2022/03/07 09:06:33;;;;;;;3.23;1.70;;;3.20;77.40;;;;;;5042184;28;20544;-80
2022/03/07 09:09:00;;;;;;;3.60;1.67;;;3.20;77.30;;;;;;5075169;28;20043;-78
2022/03/07 09:12:22;;;;;;;2.20;1.10;;;3.20;77.10;;;;;;5062876;28;20462;-90
2022/03/07 09:14:49;;;;;;;3.10;1.17;;;3.30;76.90;;;;;;5038699;28;20511;-80
2022/03/07 09:17:19;;;;;;;1.80;1.10;;;3.40;76.90;;;;;;5055186;28;20048;-85
2022/03/07 09:19:46;;;;;;;2.70;1.30;;;3.40;76.80;;;;;;5038630;28;20055;-84
2022/03/07 09:22:15;;;;;;;3.13;1.47;;;3.40;76.60;;;;;;5022928;28;20037;-76
2022/03/07 09:24:45;;;;;;;3.13;1.50;;;3.40;76.40;;;;;;5025325;28;20040;-83
2022/03/07 09:27:13;;;;;;;2.67;1.10;;;3.50;76.40;;;;;;5041824;28;20075;-78
2022/03/07 09:29:40;;;;;;;3.77;1.80;;;3.50;76.30;;;;;;5038340;28;20044;-78
2022/03/07 09:32:07;;;;;;;2.23;1.30;;;3.60;76.10;;;;;;5029388;28;20056;-81
2022/03/07 09:34:37;;;;;;;3.00;1.50;;;3.60;76.00;;;;;;5039276;28;20048;-84
2022/03/07 09:37:06;;;;;;;2.80;1.40;;;3.60;75.80;;;;;;5035899;28;20384;-78
2022/03/07 09:39:34;;;;;;;3.93;2.03;;;3.70;75.70;;;;;;5038332;28;20393;-82
2022/03/07 09:42:02;;;;;;;3.33;2.00;;;3.60;75.30;;;;;;5021830;28;20051;-77
2022/03/07 09:44:29;;;;;;;3.67;1.87;;;3.70;75.20;;;;;;5034862;28;20049;-76
2022/03/07 09:46:58;;;;;;;3.23;1.90;;;3.70;75.00;;;;;;5038257;28;20041;-77
2022/03/07 09:49:26;;;;;;;3.17;1.60;;;3.80;74.70;;;;;;5054524;28;20438;-79
2022/03/07 09:51:53;;;;;;;4.35;2.03;;;3.90;74.50;;;;;;5005565;28;20048;-79
2022/03/07 09:54:22;;;;;;;3.27;1.80;;;3.90;74.40;;;;;;5038060;28;20510;-79
2022/03/07 09:56:50;;;;;;;4.20;2.33;;;4.00;74.20;;;;;;5054154;28;20080;-79
2022/03/07 09:59:18;;;;;;;3.63;2.00;;;4.00;74.00;;;;;;5054537;28;20044;-79
2022/03/07 10:01:57;;;;;;;4.72;1.98;;;4.00;74.00;;;;;;5054525;28;20478;-79
2022/03/07 10:04:24;;;;;;;4.38;2.17;;;4.00;74.00;;;;;;5060777;28;20041;-79
2022/03/07 10:06:52;;;;;;;2.65;1.48;;;4.00;74.00;;;;;;5017980;28;20044;-79
2022/03/07 10:09:20;;;;;;;1.95;1.25;;;4.00;73.90;;;;;;5034357;28;20051;-79
2022/03/07 10:11:53;;;;;;;2.90;1.73;;;4.00;74.00;;;;;;5017825;28;20136;-79
2022/03/07 10:14:37;;;;;;;;;;;4.10;74.60;;;;;;5034733;28;20049;-79
2022/03/07 10:17:14;;;;;;;3.80;1.60;;;4.10;74.00;;;;;;5017850;28;19924;-79
2022/03/07 10:19:45;;;;;;;3.33;1.90;;;4.10;73.80;;;;;;5049552;28;20037;-79
2022/03/07 10:22:24;;;;;;;3.35;1.92;;;4.10;73.50;;;;;;5054322;28;20033;-79
2022/03/07 10:24:59;;;;;;;2.70;1.10;;;4.20;73.50;;;;;;5042494;28;20049;-79
2022/03/07 10:27:36;;;;;;;3.05;1.52;;;4.20;73.30;;;;;;5033831;28;20049;-79
2022/03/07 10:30:04;;;;;;;2.40;1.00;;;4.30;73.30;;;;;;5034855;28;20103;-79
2022/03/07 10:32:31;;;;;;;2.42;1.30;;;4.30;73.10;;;;;;5023534;28;20044;-78
2022/03/07 10:34:58;;;;;;;3.00;1.70;;;4.30;73.00;;;;;;5025075;28;20115;-78
2022/03/07 10:37:35;;;;;;;2.58;1.27;;;4.30;73.00;;;;;;5021544;28;20124;-79
2022/03/07 10:40:07;;;;;;;3.38;1.40;;;4.30;72.80;;;;;;5037899;28;20053;-79
2022/03/07 10:42:36;;;;;;;2.55;1.52;;;4.30;72.70;;;;;;5024111;28;20095;-81
2022/03/07 10:45:07;;;;;;;3.30;1.85;;;4.30;72.60;;;;;;5030677;28;20073;-80
2022/03/07 10:47:40;;;;;;;3.00;1.67;;;4.40;72.50;;;;;;5035153;28;20127;-80
2022/03/07 10:50:08;;;;;;;4.32;1.88;;;4.40;72.30;;;;;;5038038;28;20045;-80
2022/03/07 10:52:44;;;;;;;3.83;1.85;;;4.40;72.10;;;;;;5040625;28;20558;-78
2022/03/07 10:55:12;;;;;;;3.08;1.73;;;4.40;72.00;;;;;;5047010;28;20049;-80
2022/03/07 10:57:41;;;;;;;3.20;1.98;;;4.50;72.00;;;;;;5013578;28;20102;-78
2022/03/07 11:00:13;;;;;;;4.65;1.90;;;4.50;71.80;;;;;;5035966;28;20048;-80
2022/03/07 11:02:45;;;;;;;2.95;1.50;;;4.50;71.80;;;;;;5038345;28;20048;-80
2022/03/07 11:05:14;;;;;;;3.90;1.90;;;4.60;71.80;;;;;;5021474;28;20037;-80
2022/03/07 11:07:50;;;;;;;4.82;2.50;;;4.60;71.70;;;;;;5037558;28;20045;-80
2022/03/07 11:10:20;;;;;;;3.55;2.30;;;4.70;71.40;;;;;;5038554;28;20048;-79
2022/03/07 11:12:47;;;;;;;4.07;2.15;;;4.70;71.40;;;;;;5055603;28;20103;-80
2022/03/07 11:15:21;;;;;;;4.68;2.58;;;4.80;71.40;;;;;;5037752;28;20072;-82
2022/03/07 11:17:49;;;;;;;4.07;2.40;;;4.80;71.30;;;;;;5020993;28;20119;-78
2022/03/07 11:20:18;;;;;;;4.57;2.35;;;4.80;71.20;;;;;;5054882;28;20041;-79
2022/03/07 11:22:45;;;;;;;5.55;2.70;;;4.80;71.20;;;;;;5004604;28;20505;-80
2022/03/07 11:25:18;;;;;;;3.60;2.55;;;4.90;71.10;;;;;;5033255;28;20512;-80
2022/03/07 11:27:46;;;;;;;5.60;2.88;;;5.00;71.10;;;;;;5040654;28;20044;-80
2022/03/07 11:30:21;;;;;;;6.28;3.75;;;5.00;71.00;;;;;;5024827;28;20052;-80
2022/03/07 11:32:52;;;;;;;5.78;3.70;;;5.10;70.60;;;;;;5039432;28;20048;-80
2022/03/07 11:35:30;;;;;;;4.65;2.88;;;5.20;70.50;;;;;;5024391;28;20318;-80
2022/03/07 11:38:16;;;;;;;4.97;2.63;;;5.30;70.40;;;;;;5057800;28;20051;-79
2022/03/07 11:41:09;;;;;;;5.32;3.08;;;5.40;70.30;;;;;;5058905;28;20147;-80
2022/03/07 11:43:50;;;;;;;;;;;5.40;70.30;;;;;;5058868;28;20110;-82
2022/03/07 11:46:35;;;;;;;3.58;2.20;;;5.40;70.50;;;;;;5056212;28;19919;-78
2022/03/07 11:49:07;;;;;;;4.57;2.15;;;5.40;70.50;;;;;;5083858;28;20036;-78
2022/03/07 11:51:38;;;;;;;3.10;1.90;;;5.40;70.70;;;;;;5058834;28;20040;-76
2022/03/07 11:54:20;;;;;;;5.00;2.90;;;5.50;70.80;;;;;;5075237;28;20044;-78
2022/03/07 11:56:47;;;;;;;;;;;5.60;70.40;;;;;;5040281;28;20044;-76
2022/03/07 11:59:15;;;;;;;3.30;1.98;;;5.70;70.40;;;;;;5056517;28;20258;-75
2022/03/07 12:01:52;;;;;;;4.30;2.58;;;5.80;70.30;;;;;;5056265;28;20374;-73
2022/03/07 12:04:20;;;;;;;5.00;2.85;;;5.90;70.00;;;;;;5055785;28;20469;-76
2022/03/07 12:06:51;;;;;;;6.88;3.25;;;5.90;70.00;;;;;;5050595;28;20051;-76
2022/03/07 12:09:35;;;;;;;6.03;3.63;;;5.90;70.00;;;;;;5056410;28;20072;-76
2022/03/07 12:12:10;;;;;;;5.95;3.55;;;5.90;70.10;;;;;;5059035;28;20047;-74
2022/03/07 12:14:42;;;;;;;4.60;2.75;;;5.90;70.20;;;;;;5059532;28;20051;-75
2022/03/07 12:17:20;;;;;;;4.15;2.50;;;5.90;70.40;;;;;;5059620;28;20047;-75
2022/03/07 12:19:58;;;;;;;5.53;3.20;;;6.00;70.50;;;;;;5076122;28;20450;-75
2022/03/07 12:22:27;;;;;;;6.63;3.15;;;6.10;70.50;;;;;;5093926;28;20101;-75
2022/03/07 12:25:13;;;;;;;8.18;4.28;;;6.30;70.30;;;;;;5075616;28;20426;-74
2022/03/07 12:27:41;;;;;;;7.55;3.88;;;6.30;69.90;;;;;;5059167;28;20055;-76
2022/03/07 12:30:09;;;;;;;7.00;4.30;;;6.30;69.90;;;;;;5059693;28;20434;-75
2022/03/07 12:32:38;;;;;;;8.52;4.70;;;6.40;70.00;;;;;;5076532;28;20044;-75
2022/03/07 12:35:06;;;;;;;4.93;3.88;;;6.40;69.90;;;;;;5076014;28;20412;-77
2022/03/07 12:37:37;;;;;;;6.90;4.32;;;6.40;70.00;;;;;;5094028;28;20044;-78
2022/03/07 12:40:06;;;;;;;5.38;3.88;;;6.40;70.00;;;;;;5065042;28;20450;-78
2022/03/07 12:42:40;;;;;;;6.10;3.22;;;6.30;70.00;;;;;;5055897;28;20044;-78
2022/03/07 12:45:07;;;;;;;4.15;2.72;;;6.30;70.00;;;;;;5039418;28;20128;-80
2022/03/07 12:47:39;;;;;;;4.87;3.27;;;6.30;70.00;;;;;;5040020;28;20052;-79
2022/03/07 12:50:10;;;;;;;5.03;2.92;;;6.30;70.20;;;;;;5023015;28;20139;-79
2022/03/07 12:52:39;;;;;;;4.82;3.13;;;6.30;70.10;;;;;;5055221;28;20044;-80
2022/03/07 12:55:12;;;;;;;4.57;2.63;;;6.30;70.10;;;;;;5055903;28;20048;-79
2022/03/07 12:57:41;;;;;;;4.50;3.03;;;6.30;69.90;;;;;;5063871;28;20045;-79
2022/03/07 13:00:08;;;;;;;4.50;2.58;;;6.40;69.90;;;;;;5049206;28;20102;-80
2022/03/07 13:02:58;;;;;;;4.13;2.55;;;6.50;69.80;;;;;;5063182;28;20071;-79
2022/03/07 13:05:35;;;;;;;4.32;2.40;;;6.60;70.20;;;;;;5067976;28;20036;-78
2022/03/07 13:08:03;;;;;;;3.65;2.13;;;6.70;69.50;;;;;;5063476;28;20055;-78